UKLR/RWN METAR and TAF weather

Enter ICAO airport designator
Station Type Date Time Source
UKLR METAR 2020/10/29 15:00 UTC NOAA

UKLR 291500Z 28001MPS CAVOK 10/08 Q1014 R29/090070 NOSIG


Station Type Date Time Source
UKLR Decoded METAR 2020/10/29 15:00 UTC NOAA

Rivne, Ukraine (UKLR) 50-35N 026-08E
Oct 29, 2020 - 11:00 AM EDT / 2020.10.29 1500 UTC
Wind: from the W (280 degrees) at 2 MPH (2 KT):0
Visibility: greater than 7 mile(s):0
Temperature: 50 F (10 C)
Dew Point: 46 F (8 C)
Relative Humidity: 87%
Pressure (altimeter): 29.94 in. Hg (1014 hPa)
ob: UKLR 291500Z 28001MPS CAVOK 10/08 Q1014 R29/090070 NOSIG
cycle: 15

Station Type Date Time Source
UKLR TAF 2019/08/16 12:15 UTC NOAA

TAF TAF UKLR 161105Z 1612/1821 35003MPS 9999 BKN020 SCT023CB

Example: see airport list